sensor_id;sensor_type;location;lat;lon;timestamp;P1;P2;P0
47810;PMS5003;33575;52.600;7.318;2022-10-17T00:02:12;15;12;
47810;PMS5003;33575;52.600;7.318;2022-10-17T00:04:42;15;13;
47810;PMS5003;33575;52.600;7.318;2022-10-17T00:07:12;11;10;
47810;PMS5003;33575;52.600;7.318;2022-10-17T00:09:43;12;12;
47810;PMS5003;33575;52.600;7.318;2022-10-17T00:12:13;13;12;
47810;PMS5003;33575;52.600;7.318;2022-10-17T00:14:44;14;13;
47810;PMS5003;33575;52.600;7.318;2022-10-17T00:17:14;12;12;
47810;PMS5003;33575;52.600;7.318;2022-10-17T00:19:45;12;11;
47810;PMS5003;33575;52.600;7.318;2022-10-17T00:22:15;12;12;
47810;PMS5003;33575;52.600;7.318;2022-10-17T00:24:46;12;11;
47810;PMS5003;33575;52.600;7.318;2022-10-17T00:27:16;12;12;
47810;PMS5003;33575;52.600;7.318;2022-10-17T00:29:47;10;10;
47810;PMS5003;33575;52.600;7.318;2022-10-17T00:32:17;10;10;
47810;PMS5003;33575;52.600;7.318;2022-10-17T00:34:47;11;11;
47810;PMS5003;33575;52.600;7.318;2022-10-17T00:37:18;14;14;
47810;PMS5003;33575;52.600;7.318;2022-10-17T00:39:48;12;12;
47810;PMS5003;33575;52.600;7.318;2022-10-17T00:42:18;13;12;
47810;PMS5003;33575;52.600;7.318;2022-10-17T00:47:19;9;9;
47810;PMS5003;33575;52.600;7.318;2022-10-17T00:49:50;11;11;
47810;PMS5003;33575;52.600;7.318;2022-10-17T00:52:21;13;11;
47810;PMS5003;33575;52.600;7.318;2022-10-17T00:54:52;10;9;
47810;PMS5003;33575;52.600;7.318;2022-10-17T00:57:21;12;12;
47810;PMS5003;33575;52.600;7.318;2022-10-17T00:59:52;11;11;
47810;PMS5003;33575;52.600;7.318;2022-10-17T01:02:22;11;11;
47810;PMS5003;33575;52.600;7.318;2022-10-17T01:04:52;11;11;
47810;PMS5003;33575;52.600;7.318;2022-10-17T01:07:23;12;12;
47810;PMS5003;33575;52.600;7.318;2022-10-17T01:09:53;15;14;
47810;PMS5003;33575;52.600;7.318;2022-10-17T01:12:24;13;12;
47810;PMS5003;33575;52.600;7.318;2022-10-17T01:14:59;14;13;
47810;PMS5003;33575;52.600;7.318;2022-10-17T01:17:26;12;12;
47810;PMS5003;33575;52.600;7.318;2022-10-17T01:20:00;13;12;
47810;PMS5003;33575;52.600;7.318;2022-10-17T01:22:26;15;14;
47810;PMS5003;33575;52.600;7.318;2022-10-17T01:25:01;13;13;
47810;PMS5003;33575;52.600;7.318;2022-10-17T01:30:00;13;13;
47810;PMS5003;33575;52.600;7.318;2022-10-17T01:32:28;12;12;
47810;PMS5003;33575;52.600;7.318;2022-10-17T01:34:58;16;14;
47810;PMS5003;33575;52.600;7.318;2022-10-17T01:37:29;11;11;
47810;PMS5003;33575;52.600;7.318;2022-10-17T01:39:59;13;13;
47810;PMS5003;33575;52.600;7.318;2022-10-17T01:42:30;15;15;
47810;PMS5003;33575;52.600;7.318;2022-10-17T01:45:00;14;13;
47810;PMS5003;33575;52.600;7.318;2022-10-17T01:47:30;18;15;
47810;PMS5003;33575;52.600;7.318;2022-10-17T01:50:00;17;15;
47810;PMS5003;33575;52.600;7.318;2022-10-17T01:52:31;14;14;
47810;PMS5003;33575;52.600;7.318;2022-10-17T01:55:02;17;15;
47810;PMS5003;33575;52.600;7.318;2022-10-17T01:57:33;15;13;
47810;PMS5003;33575;52.600;7.318;2022-10-17T02:00:02;20;19;
47810;PMS5003;33575;52.600;7.318;2022-10-17T02:02:31;13;13;
47810;PMS5003;33575;52.600;7.318;2022-10-17T02:05:02;18;16;
47810;PMS5003;33575;52.600;7.318;2022-10-17T02:07:32;14;14;
47810;PMS5003;33575;52.600;7.318;2022-10-17T02:10:03;12;12;
47810;PMS5003;33575;52.600;7.318;2022-10-17T02:12:34;15;14;
47810;PMS5003;33575;52.600;7.318;2022-10-17T02:17:37;14;13;
47810;PMS5003;33575;52.600;7.318;2022-10-17T02:20:07;15;14;
47810;PMS5003;33575;52.600;7.318;2022-10-17T02:22:37;15;15;
47810;PMS5003;33575;52.600;7.318;2022-10-17T02:25:06;15;14;
47810;PMS5003;33575;52.600;7.318;2022-10-17T02:27:39;13;13;
47810;PMS5003;33575;52.600;7.318;2022-10-17T02:30:07;17;17;
47810;PMS5003;33575;52.600;7.318;2022-10-17T02:32:37;13;12;
47810;PMS5003;33575;52.600;7.318;2022-10-17T02:35:08;18;17;
47810;PMS5003;33575;52.600;7.318;2022-10-17T02:37:37;14;14;
47810;PMS5003;33575;52.600;7.318;2022-10-17T02:40:08;21;20;
47810;PMS5003;33575;52.600;7.318;2022-10-17T02:42:38;16;16;
47810;PMS5003;33575;52.600;7.318;2022-10-17T02:45:08;19;19;
47810;PMS5003;33575;52.600;7.318;2022-10-17T02:47:40;18;17;
47810;PMS5003;33575;52.600;7.318;2022-10-17T02:50:09;17;16;
47810;PMS5003;33575;52.600;7.318;2022-10-17T02:52:41;20;19;
47810;PMS5003;33575;52.600;7.318;2022-10-17T02:55:10;15;14;
47810;PMS5003;33575;52.600;7.318;2022-10-17T02:57:40;19;18;
47810;PMS5003;33575;52.600;7.318;2022-10-17T03:00:11;18;17;
47810;PMS5003;33575;52.600;7.318;2022-10-17T03:02:42;18;17;
47810;PMS5003;33575;52.600;7.318;2022-10-17T03:05:12;20;19;
47810;PMS5003;33575;52.600;7.318;2022-10-17T03:07:41;15;15;
47810;PMS5003;33575;52.600;7.318;2022-10-17T03:10:12;21;20;
47810;PMS5003;33575;52.600;7.318;2022-10-17T03:12:42;20;19;
47810;PMS5003;33575;52.600;7.318;2022-10-17T03:15:12;21;20;
47810;PMS5003;33575;52.600;7.318;2022-10-17T03:17:43;19;19;
47810;PMS5003;33575;52.600;7.318;2022-10-17T03:20:13;21;21;
47810;PMS5003;33575;52.600;7.318;2022-10-17T03:22:43;18;17;
47810;PMS5003;33575;52.600;7.318;2022-10-17T03:25:13;17;17;
47810;PMS5003;33575;52.600;7.318;2022-10-17T03:27:44;18;17;
47810;PMS5003;33575;52.600;7.318;2022-10-17T03:30:14;18;18;
47810;PMS5003;33575;52.600;7.318;2022-10-17T03:32:44;19;18;
47810;PMS5003;33575;52.600;7.318;2022-10-17T03:35:15;18;17;
47810;PMS5003;33575;52.600;7.318;2022-10-17T03:37:45;19;18;
47810;PMS5003;33575;52.600;7.318;2022-10-17T03:40:15;14;14;
47810;PMS5003;33575;52.600;7.318;2022-10-17T03:42:46;21;20;
47810;PMS5003;33575;52.600;7.318;2022-10-17T03:45:16;17;15;
47810;PMS5003;33575;52.600;7.318;2022-10-17T03:47:46;20;19;
47810;PMS5003;33575;52.600;7.318;2022-10-17T03:50:17;18;18;
47810;PMS5003;33575;52.600;7.318;2022-10-17T03:52:48;15;15;
47810;PMS5003;33575;52.600;7.318;2022-10-17T03:55:18;18;17;
47810;PMS5003;33575;52.600;7.318;2022-10-17T03:57:48;20;19;
47810;PMS5003;33575;52.600;7.318;2022-10-17T04:00:19;18;18;
47810;PMS5003;33575;52.600;7.318;2022-10-17T04:02:49;18;18;
47810;PMS5003;33575;52.600;7.318;2022-10-17T04:05:20;19;19;
47810;PMS5003;33575;52.600;7.318;2022-10-17T04:07:50;20;18;
47810;PMS5003;33575;52.600;7.318;2022-10-17T04:10:21;20;18;
47810;PMS5003;33575;52.600;7.318;2022-10-17T04:12:51;16;16;
47810;PMS5003;33575;52.600;7.318;2022-10-17T04:15:22;18;18;
47810;PMS5003;33575;52.600;7.318;2022-10-17T04:17:52;17;16;
47810;PMS5003;33575;52.600;7.318;2022-10-17T04:20:22;14;13;
47810;PMS5003;33575;52.600;7.318;2022-10-17T04:22:53;19;18;
47810;PMS5003;33575;52.600;7.318;2022-10-17T04:25:23;17;16;
47810;PMS5003;33575;52.600;7.318;2022-10-17T04:27:53;14;14;
47810;PMS5003;33575;52.600;7.318;2022-10-17T04:30:24;20;18;
47810;PMS5003;33575;52.600;7.318;2022-10-17T04:32:54;15;15;
47810;PMS5003;33575;52.600;7.318;2022-10-17T04:35:24;20;18;
47810;PMS5003;33575;52.600;7.318;2022-10-17T04:37:54;17;17;
47810;PMS5003;33575;52.600;7.318;2022-10-17T04:40:25;18;17;
47810;PMS5003;33575;52.600;7.318;2022-10-17T04:42:55;15;15;
47810;PMS5003;33575;52.600;7.318;2022-10-17T04:45:25;18;17;
47810;PMS5003;33575;52.600;7.318;2022-10-17T04:47:56;14;14;
47810;PMS5003;33575;52.600;7.318;2022-10-17T04:50:26;15;15;
47810;PMS5003;33575;52.600;7.318;2022-10-17T04:52:56;16;15;
47810;PMS5003;33575;52.600;7.318;2022-10-17T04:55:26;19;19;
47810;PMS5003;33575;52.600;7.318;2022-10-17T04:57:56;18;15;
47810;PMS5003;33575;52.600;7.318;2022-10-17T05:00:27;16;16;
47810;PMS5003;33575;52.600;7.318;2022-10-17T05:02:57;17;16;
47810;PMS5003;33575;52.600;7.318;2022-10-17T05:05:27;19;18;
47810;PMS5003;33575;52.600;7.318;2022-10-17T05:07:58;16;16;
47810;PMS5003;33575;52.600;7.318;2022-10-17T05:10:28;17;16;
47810;PMS5003;33575;52.600;7.318;2022-10-17T05:12:58;15;15;
47810;PMS5003;33575;52.600;7.318;2022-10-17T05:15:29;18;17;
47810;PMS5003;33575;52.600;7.318;2022-10-17T05:17:59;15;15;
47810;PMS5003;33575;52.600;7.318;2022-10-17T05:20:29;17;17;
47810;PMS5003;33575;52.600;7.318;2022-10-17T05:22:59;18;17;
47810;PMS5003;33575;52.600;7.318;2022-10-17T05:25:29;18;17;
47810;PMS5003;33575;52.600;7.318;2022-10-17T05:27:59;13;13;
47810;PMS5003;33575;52.600;7.318;2022-10-17T05:30:35;18;17;
47810;PMS5003;33575;52.600;7.318;2022-10-17T05:33:01;18;17;
47810;PMS5003;33575;52.600;7.318;2022-10-17T05:35:31;15;14;
47810;PMS5003;33575;52.600;7.318;2022-10-17T05:38:01;17;16;
47810;PMS5003;33575;52.600;7.318;2022-10-17T05:40:32;16;15;
47810;PMS5003;33575;52.600;7.318;2022-10-17T05:43:02;18;16;
47810;PMS5003;33575;52.600;7.318;2022-10-17T05:45:32;16;15;
47810;PMS5003;33575;52.600;7.318;2022-10-17T05:48:02;18;17;
47810;PMS5003;33575;52.600;7.318;2022-10-17T05:50:33;17;17;
47810;PMS5003;33575;52.600;7.318;2022-10-17T05:53:03;27;27;
47810;PMS5003;33575;52.600;7.318;2022-10-17T05:55:34;21;21;
47810;PMS5003;33575;52.600;7.318;2022-10-17T05:58:04;22;21;
47810;PMS5003;33575;52.600;7.318;2022-10-17T06:00:34;21;17;
47810;PMS5003;33575;52.600;7.318;2022-10-17T06:03:04;16;15;
47810;PMS5003;33575;52.600;7.318;2022-10-17T06:05:34;17;15;
47810;PMS5003;33575;52.600;7.318;2022-10-17T06:08:05;19;19;
47810;PMS5003;33575;52.600;7.318;2022-10-17T06:10:35;15;15;
47810;PMS5003;33575;52.600;7.318;2022-10-17T06:13:05;16;16;
47810;PMS5003;33575;52.600;7.318;2022-10-17T06:15:35;15;15;
47810;PMS5003;33575;52.600;7.318;2022-10-17T06:18:05;17;15;
47810;PMS5003;33575;52.600;7.318;2022-10-17T06:20:35;15;15;
47810;PMS5003;33575;52.600;7.318;2022-10-17T06:23:06;20;18;
47810;PMS5003;33575;52.600;7.318;2022-10-17T06:25:36;16;16;
47810;PMS5003;33575;52.600;7.318;2022-10-17T06:28:06;13;13;
47810;PMS5003;33575;52.600;7.318;2022-10-17T06:30:37;14;14;
47810;PMS5003;33575;52.600;7.318;2022-10-17T06:33:07;15;13;
47810;PMS5003;33575;52.600;7.318;2022-10-17T06:35:38;17;16;
47810;PMS5003;33575;52.600;7.318;2022-10-17T06:38:08;13;13;
47810;PMS5003;33575;52.600;7.318;2022-10-17T06:40:38;18;17;
47810;PMS5003;33575;52.600;7.318;2022-10-17T06:43:09;14;14;
47810;PMS5003;33575;52.600;7.318;2022-10-17T06:45:39;16;14;
47810;PMS5003;33575;52.600;7.318;2022-10-17T06:48:10;16;14;
47810;PMS5003;33575;52.600;7.318;2022-10-17T06:50:40;14;14;
47810;PMS5003;33575;52.600;7.318;2022-10-17T06:53:10;14;13;
47810;PMS5003;33575;52.600;7.318;2022-10-17T06:55:40;17;15;
47810;PMS5003;33575;52.600;7.318;2022-10-17T06:58:11;14;14;
47810;PMS5003;33575;52.600;7.318;2022-10-17T07:00:41;17;15;
47810;PMS5003;33575;52.600;7.318;2022-10-17T07:03:11;15;14;
47810;PMS5003;33575;52.600;7.318;2022-10-17T07:05:41;15;15;
47810;PMS5003;33575;52.600;7.318;2022-10-17T07:08:11;14;13;
47810;PMS5003;33575;52.600;7.318;2022-10-17T07:10:41;17;17;
47810;PMS5003;33575;52.600;7.318;2022-10-17T07:13:11;16;14;
47810;PMS5003;33575;52.600;7.318;2022-10-17T07:15:42;14;13;
47810;PMS5003;33575;52.600;7.318;2022-10-17T07:18:12;15;15;
47810;PMS5003;33575;52.600;7.318;2022-10-17T07:20:42;15;14;
47810;PMS5003;33575;52.600;7.318;2022-10-17T07:23:12;14;14;
47810;PMS5003;33575;52.600;7.318;2022-10-17T07:25:43;16;15;
47810;PMS5003;33575;52.600;7.318;2022-10-17T07:28:13;15;14;
47810;PMS5003;33575;52.600;7.318;2022-10-17T07:30:43;17;17;
47810;PMS5003;33575;52.600;7.318;2022-10-17T07:33:13;15;13;
47810;PMS5003;33575;52.600;7.318;2022-10-17T07:35:44;17;16;
47810;PMS5003;33575;52.600;7.318;2022-10-17T07:38:14;14;14;
47810;PMS5003;33575;52.600;7.318;2022-10-17T07:40:45;12;11;
47810;PMS5003;33575;52.600;7.318;2022-10-17T07:43:15;13;11;
47810;PMS5003;33575;52.600;7.318;2022-10-17T07:45:45;15;14;
47810;PMS5003;33575;52.600;7.318;2022-10-17T07:48:16;13;13;
47810;PMS5003;33575;52.600;7.318;2022-10-17T07:50:46;15;15;
47810;PMS5003;33575;52.600;7.318;2022-10-17T07:53:16;15;15;
47810;PMS5003;33575;52.600;7.318;2022-10-17T07:55:46;16;15;
47810;PMS5003;33575;52.600;7.318;2022-10-17T07:58:16;14;13;
47810;PMS5003;33575;52.600;7.318;2022-10-17T08:00:46;13;11;
47810;PMS5003;33575;52.600;7.318;2022-10-17T08:03:17;12;12;
47810;PMS5003;33575;52.600;7.318;2022-10-17T08:05:47;16;14;
47810;PMS5003;33575;52.600;7.318;2022-10-17T08:08:17;12;12;
47810;PMS5003;33575;52.600;7.318;2022-10-17T08:10:48;13;12;
47810;PMS5003;33575;52.600;7.318;2022-10-17T08:13:18;14;12;
47810;PMS5003;33575;52.600;7.318;2022-10-17T08:15:48;15;14;
47810;PMS5003;33575;52.600;7.318;2022-10-17T08:18:18;15;13;
47810;PMS5003;33575;52.600;7.318;2022-10-17T08:20:49;13;13;
47810;PMS5003;33575;52.600;7.318;2022-10-17T08:23:19;15;15;
47810;PMS5003;33575;52.600;7.318;2022-10-17T08:25:49;13;12;
47810;PMS5003;33575;52.600;7.318;2022-10-17T08:28:20;14;13;
47810;PMS5003;33575;52.600;7.318;2022-10-17T08:30:50;13;13;
47810;PMS5003;33575;52.600;7.318;2022-10-17T08:33:21;17;15;
47810;PMS5003;33575;52.600;7.318;2022-10-17T08:35:51;14;13;
47810;PMS5003;33575;52.600;7.318;2022-10-17T08:38:25;16;16;
47810;PMS5003;33575;52.600;7.318;2022-10-17T08:40:52;17;15;
47810;PMS5003;33575;52.600;7.318;2022-10-17T08:43:27;18;14;
47810;PMS5003;33575;52.600;7.318;2022-10-17T08:45:54;16;15;
47810;PMS5003;33575;52.600;7.318;2022-10-17T08:48:24;15;14;
47810;PMS5003;33575;52.600;7.318;2022-10-17T08:50:55;14;13;
47810;PMS5003;33575;52.600;7.318;2022-10-17T08:53:26;14;14;
47810;PMS5003;33575;52.600;7.318;2022-10-17T08:55:54;15;14;
47810;PMS5003;33575;52.600;7.318;2022-10-17T08:58:26;13;13;
47810;PMS5003;33575;52.600;7.318;2022-10-17T09:00:59;18;15;
47810;PMS5003;33575;52.600;7.318;2022-10-17T09:03:31;16;15;
47810;PMS5003;33575;52.600;7.318;2022-10-17T09:05:59;16;15;
47810;PMS5003;33575;52.600;7.318;2022-10-17T09:08:31;15;14;
47810;PMS5003;33575;52.600;7.318;2022-10-17T09:10:57;14;13;
47810;PMS5003;33575;52.600;7.318;2022-10-17T09:13:31;16;14;
47810;PMS5003;33575;52.600;7.318;2022-10-17T09:16:01;15;14;
47810;PMS5003;33575;52.600;7.318;2022-10-17T09:18:28;12;11;
47810;PMS5003;33575;52.600;7.318;2022-10-17T09:20:59;12;12;
47810;PMS5003;33575;52.600;7.318;2022-10-17T09:23:29;11;11;
47810;PMS5003;33575;52.600;7.318;2022-10-17T09:25:58;14;14;
47810;PMS5003;33575;52.600;7.318;2022-10-17T09:28:29;11;11;
47810;PMS5003;33575;52.600;7.318;2022-10-17T09:30:59;13;13;
47810;PMS5003;33575;52.600;7.318;2022-10-17T09:33:35;14;13;
47810;PMS5003;33575;52.600;7.318;2022-10-17T09:35:59;12;12;
47810;PMS5003;33575;52.600;7.318;2022-10-17T09:38:33;9;9;
47810;PMS5003;33575;52.600;7.318;2022-10-17T09:41:00;11;10;
47810;PMS5003;33575;52.600;7.318;2022-10-17T09:43:30;15;13;
47810;PMS5003;33575;52.600;7.318;2022-10-17T09:46:03;14;14;
47810;PMS5003;33575;52.600;7.318;2022-10-17T09:48:33;14;14;
47810;PMS5003;33575;52.600;7.318;2022-10-17T09:51:07;13;12;
47810;PMS5003;33575;52.600;7.318;2022-10-17T09:53:33;12;12;
47810;PMS5003;33575;52.600;7.318;2022-10-17T09:56:05;12;12;
47810;PMS5003;33575;52.600;7.318;2022-10-17T10:03:34;14;14;
47810;PMS5003;33575;52.600;7.318;2022-10-17T10:06:05;13;12;
47810;PMS5003;33575;52.600;7.318;2022-10-17T10:08:36;13;12;
47810;PMS5003;33575;52.600;7.318;2022-10-17T10:11:06;11;11;
47810;PMS5003;33575;52.600;7.318;2022-10-17T10:13:35;12;11;
47810;PMS5003;33575;52.600;7.318;2022-10-17T10:18:36;14;13;
47810;PMS5003;33575;52.600;7.318;2022-10-17T10:21:12;14;14;
47810;PMS5003;33575;52.600;7.318;2022-10-17T10:23:37;15;13;
47810;PMS5003;33575;52.600;7.318;2022-10-17T10:28:49;15;13;
47810;PMS5003;33575;52.600;7.318;2022-10-17T10:31:08;14;13;
47810;PMS5003;33575;52.600;7.318;2022-10-17T10:33:42;16;15;
47810;PMS5003;33575;52.600;7.318;2022-10-17T10:36:08;15;14;
47810;PMS5003;33575;52.600;7.318;2022-10-17T10:38:39;14;14;
47810;PMS5003;33575;52.600;7.318;2022-10-17T10:41:09;16;14;
47810;PMS5003;33575;52.600;7.318;2022-10-17T10:43:40;17;16;
47810;PMS5003;33575;52.600;7.318;2022-10-17T10:48:39;15;14;
47810;PMS5003;33575;52.600;7.318;2022-10-17T10:51:11;16;14;
47810;PMS5003;33575;52.600;7.318;2022-10-17T10:53:42;15;13;
47810;PMS5003;33575;52.600;7.318;2022-10-17T10:56:13;15;13;
47810;PMS5003;33575;52.600;7.318;2022-10-17T10:58:47;13;13;
47810;PMS5003;33575;52.600;7.318;2022-10-17T11:01:14;12;12;
47810;PMS5003;33575;52.600;7.318;2022-10-17T11:03:46;16;15;
47810;PMS5003;33575;52.600;7.318;2022-10-17T11:06:13;13;12;
47810;PMS5003;33575;52.600;7.318;2022-10-17T11:08:44;15;14;
47810;PMS5003;33575;52.600;7.318;2022-10-17T11:11:13;14;13;
47810;PMS5003;33575;52.600;7.318;2022-10-17T11:13:45;14;13;
47810;PMS5003;33575;52.600;7.318;2022-10-17T11:16:17;14;11;
47810;PMS5003;33575;52.600;7.318;2022-10-17T11:18:44;13;12;
47810;PMS5003;33575;52.600;7.318;2022-10-17T11:21:14;10;10;
47810;PMS5003;33575;52.600;7.318;2022-10-17T11:23:46;11;11;
47810;PMS5003;33575;52.600;7.318;2022-10-17T11:26:20;9;9;
47810;PMS5003;33575;52.600;7.318;2022-10-17T11:28:54;10;10;
47810;PMS5003;33575;52.600;7.318;2022-10-17T11:31:23;11;10;
47810;PMS5003;33575;52.600;7.318;2022-10-17T11:33:49;13;13;
47810;PMS5003;33575;52.600;7.318;2022-10-17T11:36:20;11;10;
47810;PMS5003;33575;52.600;7.318;2022-10-17T11:38:52;9;9;
47810;PMS5003;33575;52.600;7.318;2022-10-17T11:41:30;11;10;
47810;PMS5003;33575;52.600;7.318;2022-10-17T11:43:57;11;10;
47810;PMS5003;33575;52.600;7.318;2022-10-17T11:46:27;9;9;
47810;PMS5003;33575;52.600;7.318;2022-10-17T11:49:03;10;10;
47810;PMS5003;33575;52.600;7.318;2022-10-17T11:51:29;11;11;
47810;PMS5003;33575;52.600;7.318;2022-10-17T11:53:55;8;8;
47810;PMS5003;33575;52.600;7.318;2022-10-17T11:56:25;13;11;
47810;PMS5003;33575;52.600;7.318;2022-10-17T11:58:57;12;12;
47810;PMS5003;33575;52.600;7.318;2022-10-17T12:01:30;10;10;
47810;PMS5003;33575;52.600;7.318;2022-10-17T12:06:38;10;9;
47810;PMS5003;33575;52.600;7.318;2022-10-17T12:08:58;8;8;
47810;PMS5003;33575;52.600;7.318;2022-10-17T12:11:28;10;10;
47810;PMS5003;33575;52.600;7.318;2022-10-17T12:13:56;12;11;
47810;PMS5003;33575;52.600;7.318;2022-10-17T12:23:54;11;10;
47810;PMS5003;33575;52.600;7.318;2022-10-17T12:26:25;13;11;
47810;PMS5003;33575;52.600;7.318;2022-10-17T12:29:00;13;13;
47810;PMS5003;33575;52.600;7.318;2022-10-17T12:31:24;15;13;
47810;PMS5003;33575;52.600;7.318;2022-10-17T12:33:56;11;11;
47810;PMS5003;33575;52.600;7.318;2022-10-17T12:43:56;14;12;
47810;PMS5003;33575;52.600;7.318;2022-10-17T12:48:58;11;11;
47810;PMS5003;33575;52.600;7.318;2022-10-17T12:54:07;12;11;
47810;PMS5003;33575;52.600;7.318;2022-10-17T12:56:33;11;11;
47810;PMS5003;33575;52.600;7.318;2022-10-17T12:58:57;14;13;
47810;PMS5003;33575;52.600;7.318;2022-10-17T13:01:29;15;13;
47810;PMS5003;33575;52.600;7.318;2022-10-17T13:04:04;12;11;
47810;PMS5003;33575;52.600;7.318;2022-10-17T13:06:29;14;12;
47810;PMS5003;33575;52.600;7.318;2022-10-17T13:09:07;14;13;
47810;PMS5003;33575;52.600;7.318;2022-10-17T13:11:32;15;13;
47810;PMS5003;33575;52.600;7.318;2022-10-17T13:14:02;12;12;
47810;PMS5003;33575;52.600;7.318;2022-10-17T13:16:31;12;11;
47810;PMS5003;33575;52.600;7.318;2022-10-17T13:19:02;16;14;
47810;PMS5003;33575;52.600;7.318;2022-10-17T13:21:31;13;13;
47810;PMS5003;33575;52.600;7.318;2022-10-17T13:26:35;13;13;
47810;PMS5003;33575;52.600;7.318;2022-10-17T13:29:04;13;13;
47810;PMS5003;33575;52.600;7.318;2022-10-17T13:31:34;13;13;
47810;PMS5003;33575;52.600;7.318;2022-10-17T13:34:05;18;17;
47810;PMS5003;33575;52.600;7.318;2022-10-17T13:36:35;12;12;
47810;PMS5003;33575;52.600;7.318;2022-10-17T13:39:06;14;14;
47810;PMS5003;33575;52.600;7.318;2022-10-17T13:41:46;12;11;
47810;PMS5003;33575;52.600;7.318;2022-10-17T13:44:08;12;12;
47810;PMS5003;33575;52.600;7.318;2022-10-17T13:46:41;12;12;
47810;PMS5003;33575;52.600;7.318;2022-10-17T13:49:10;14;13;
47810;PMS5003;33575;52.600;7.318;2022-10-17T13:51:36;10;10;
47810;PMS5003;33575;52.600;7.318;2022-10-17T13:56:37;13;12;
47810;PMS5003;33575;52.600;7.318;2022-10-17T13:59:13;14;13;
47810;PMS5003;33575;52.600;7.318;2022-10-17T14:01:38;13;12;
47810;PMS5003;33575;52.600;7.318;2022-10-17T14:04:12;12;12;
47810;PMS5003;33575;52.600;7.318;2022-10-17T14:06:39;14;13;
47810;PMS5003;33575;52.600;7.318;2022-10-17T14:11:42;13;12;
47810;PMS5003;33575;52.600;7.318;2022-10-17T14:14:15;14;13;
47810;PMS5003;33575;52.600;7.318;2022-10-17T14:16:41;19;17;
47810;PMS5003;33575;52.600;7.318;2022-10-17T14:19:15;14;13;
47810;PMS5003;33575;52.600;7.318;2022-10-17T14:21:46;14;13;
47810;PMS5003;33575;52.600;7.318;2022-10-17T14:24:13;13;13;
47810;PMS5003;33575;52.600;7.318;2022-10-17T14:26:45;11;11;
47810;PMS5003;33575;52.600;7.318;2022-10-17T14:29:17;13;12;
47810;PMS5003;33575;52.600;7.318;2022-10-17T14:31:42;13;13;
47810;PMS5003;33575;52.600;7.318;2022-10-17T14:34:15;13;13;
47810;PMS5003;33575;52.600;7.318;2022-10-17T14:36:43;12;12;
47810;PMS5003;33575;52.600;7.318;2022-10-17T14:39:17;13;13;
47810;PMS5003;33575;52.600;7.318;2022-10-17T14:41:44;14;14;
47810;PMS5003;33575;52.600;7.318;2022-10-17T14:44:16;11;11;
47810;PMS5003;33575;52.600;7.318;2022-10-17T14:46:50;15;15;
47810;PMS5003;33575;52.600;7.318;2022-10-17T14:49:15;13;13;
47810;PMS5003;33575;52.600;7.318;2022-10-17T14:54:18;10;10;
47810;PMS5003;33575;52.600;7.318;2022-10-17T14:56:48;13;13;
47810;PMS5003;33575;52.600;7.318;2022-10-17T14:59:21;12;12;
47810;PMS5003;33575;52.600;7.318;2022-10-17T15:01:47;14;13;
47810;PMS5003;33575;52.600;7.318;2022-10-17T15:04:18;15;15;
47810;PMS5003;33575;52.600;7.318;2022-10-17T15:06:52;15;13;
47810;PMS5003;33575;52.600;7.318;2022-10-17T15:09:19;12;12;
47810;PMS5003;33575;52.600;7.318;2022-10-17T15:11:49;13;13;
47810;PMS5003;33575;52.600;7.318;2022-10-17T15:14:19;15;14;
47810;PMS5003;33575;52.600;7.318;2022-10-17T15:16:50;16;16;
47810;PMS5003;33575;52.600;7.318;2022-10-17T15:19:20;15;14;
47810;PMS5003;33575;52.600;7.318;2022-10-17T15:21:50;13;13;
47810;PMS5003;33575;52.600;7.318;2022-10-17T15:24:21;15;12;
47810;PMS5003;33575;52.600;7.318;2022-10-17T15:26:51;13;13;
47810;PMS5003;33575;52.600;7.318;2022-10-17T15:29:22;15;15;
47810;PMS5003;33575;52.600;7.318;2022-10-17T15:31:52;14;13;
47810;PMS5003;33575;52.600;7.318;2022-10-17T15:34:22;15;14;
47810;PMS5003;33575;52.600;7.318;2022-10-17T15:36:53;15;13;
47810;PMS5003;33575;52.600;7.318;2022-10-17T15:39:23;15;15;
47810;PMS5003;33575;52.600;7.318;2022-10-17T15:41:54;16;14;
47810;PMS5003;33575;52.600;7.318;2022-10-17T15:44:25;17;15;
47810;PMS5003;33575;52.600;7.318;2022-10-17T15:46:55;15;14;
47810;PMS5003;33575;52.600;7.318;2022-10-17T15:49:25;14;14;
47810;PMS5003;33575;52.600;7.318;2022-10-17T15:51:56;10;8;
47810;PMS5003;33575;52.600;7.318;2022-10-17T15:54:26;5;4;
47810;PMS5003;33575;52.600;7.318;2022-10-17T15:56:56;4;4;
47810;PMS5003;33575;52.600;7.318;2022-10-17T15:59:28;4;4;
47810;PMS5003;33575;52.600;7.318;2022-10-17T16:01:57;5;4;
47810;PMS5003;33575;52.600;7.318;2022-10-17T16:04:27;4;4;
47810;PMS5003;33575;52.600;7.318;2022-10-17T16:06:58;5;4;
47810;PMS5003;33575;52.600;7.318;2022-10-17T16:09:28;5;4;
47810;PMS5003;33575;52.600;7.318;2022-10-17T16:11:59;3;3;
47810;PMS5003;33575;52.600;7.318;2022-10-17T16:14:28;5;3;
47810;PMS5003;33575;52.600;7.318;2022-10-17T16:16:59;2;2;
47810;PMS5003;33575;52.600;7.318;2022-10-17T16:19:29;2;2;
47810;PMS5003;33575;52.600;7.318;2022-10-17T16:22:04;3;3;
47810;PMS5003;33575;52.600;7.318;2022-10-17T16:24:30;3;3;
47810;PMS5003;33575;52.600;7.318;2022-10-17T16:27:00;3;3;
47810;PMS5003;33575;52.600;7.318;2022-10-17T16:29:30;4;4;
47810;PMS5003;33575;52.600;7.318;2022-10-17T16:32:01;3;3;
47810;PMS5003;33575;52.600;7.318;2022-10-17T16:34:31;6;6;
47810;PMS5003;33575;52.600;7.318;2022-10-17T16:37:01;4;4;
47810;PMS5003;33575;52.600;7.318;2022-10-17T16:39:31;4;4;
47810;PMS5003;33575;52.600;7.318;2022-10-17T16:42:02;5;5;
47810;PMS5003;33575;52.600;7.318;2022-10-17T16:44:32;3;3;
47810;PMS5003;33575;52.600;7.318;2022-10-17T16:47:02;3;3;
47810;PMS5003;33575;52.600;7.318;2022-10-17T16:49:33;5;4;
47810;PMS5003;33575;52.600;7.318;2022-10-17T16:52:03;3;3;
47810;PMS5003;33575;52.600;7.318;2022-10-17T16:54:33;5;4;
47810;PMS5003;33575;52.600;7.318;2022-10-17T16:57:04;5;5;
47810;PMS5003;33575;52.600;7.318;2022-10-17T16:59:34;4;4;
47810;PMS5003;33575;52.600;7.318;2022-10-17T17:02:04;4;4;
47810;PMS5003;33575;52.600;7.318;2022-10-17T17:04:34;4;3;
47810;PMS5003;33575;52.600;7.318;2022-10-17T17:07:05;5;4;
47810;PMS5003;33575;52.600;7.318;2022-10-17T17:09:35;4;4;
47810;PMS5003;33575;52.600;7.318;2022-10-17T17:12:05;4;4;
47810;PMS5003;33575;52.600;7.318;2022-10-17T17:14:37;4;4;
47810;PMS5003;33575;52.600;7.318;2022-10-17T17:17:11;5;5;
47810;PMS5003;33575;52.600;7.318;2022-10-17T17:19:37;4;4;
47810;PMS5003;33575;52.600;7.318;2022-10-17T17:22:07;4;4;
47810;PMS5003;33575;52.600;7.318;2022-10-17T17:24:37;5;4;
47810;PMS5003;33575;52.600;7.318;2022-10-17T17:27:12;4;3;
47810;PMS5003;33575;52.600;7.318;2022-10-17T17:29:38;5;4;
47810;PMS5003;33575;52.600;7.318;2022-10-17T17:32:08;7;7;
47810;PMS5003;33575;52.600;7.318;2022-10-17T17:34:38;7;6;